sensor_id;sensor_type;location;lat;lon;timestamp;pressure;altitude;pressure_sealevel;temperature;humidity
58698;BME280;44475;53.206;-6.106;2023-02-28T00:01:11;103595.03;;;23.21;43.47
58698;BME280;44475;53.206;-6.106;2023-02-28T00:03:38;103594.03;;;23.23;43.22
58698;BME280;44475;53.206;-6.106;2023-02-28T00:06:06;103597.00;;;23.17;43.11
58698;BME280;44475;53.206;-6.106;2023-02-28T00:08:32;103594.34;;;23.15;43.36
58698;BME280;44475;53.206;-6.106;2023-02-28T00:11:03;103590.47;;;23.21;43.36
58698;BME280;44475;53.206;-6.106;2023-02-28T00:13:29;103588.97;;;23.14;43.60
58698;BME280;44475;53.206;-6.106;2023-02-28T00:16:00;103593.13;;;23.02;43.63
58698;BME280;44475;53.206;-6.106;2023-02-28T00:18:26;103598.19;;;23.11;43.39
58698;BME280;44475;53.206;-6.106;2023-02-28T00:20:52;103562.50;;;22.93;43.60
58698;BME280;44475;53.206;-6.106;2023-02-28T00:23:19;103596.22;;;23.15;43.60
58698;BME280;44475;53.206;-6.106;2023-02-28T00:25:45;103593.31;;;23.18;43.29
58698;BME280;44475;53.206;-6.106;2023-02-28T00:28:11;103597.91;;;23.17;43.14
58698;BME280;44475;53.206;-6.106;2023-02-28T00:30:37;103603.13;;;23.24;43.25
58698;BME280;44475;53.206;-6.106;2023-02-28T00:33:04;103605.28;;;23.15;43.59
58698;BME280;44475;53.206;-6.106;2023-02-28T00:35:31;103600.44;;;23.22;43.24
58698;BME280;44475;53.206;-6.106;2023-02-28T00:37:57;103611.53;;;23.19;43.26
58698;BME280;44475;53.206;-6.106;2023-02-28T00:40:23;103612.13;;;23.26;42.97
58698;BME280;44475;53.206;-6.106;2023-02-28T00:42:49;103611.88;;;23.32;42.83
58698;BME280;44475;53.206;-6.106;2023-02-28T00:45:17;103611.03;;;23.30;42.95
58698;BME280;44475;53.206;-6.106;2023-02-28T00:47:43;103612.22;;;23.24;43.18
58698;BME280;44475;53.206;-6.106;2023-02-28T00:50:10;103611.47;;;23.21;43.06
58698;BME280;44475;53.206;-6.106;2023-02-28T00:52:36;103609.69;;;23.19;43.21
58698;BME280;44475;53.206;-6.106;2023-02-28T00:55:03;103613.91;;;23.27;42.86
58698;BME280;44475;53.206;-6.106;2023-02-28T00:57:29;103612.28;;;23.23;43.14
58698;BME280;44475;53.206;-6.106;2023-02-28T00:59:55;103608.38;;;23.28;43.27
58698;BME280;44475;53.206;-6.106;2023-02-28T01:02:22;103617.75;;;23.23;43.37
58698;BME280;44475;53.206;-6.106;2023-02-28T01:04:48;103609.75;;;23.18;42.97
58698;BME280;44475;53.206;-6.106;2023-02-28T01:07:15;103609.19;;;23.31;42.90
58698;BME280;44475;53.206;-6.106;2023-02-28T01:09:41;103622.34;;;23.22;43.39
58698;BME280;44475;53.206;-6.106;2023-02-28T01:12:08;103624.25;;;23.20;43.38
58698;BME280;44475;53.206;-6.106;2023-02-28T01:14:35;103615.84;;;23.25;43.13
58698;BME280;44475;53.206;-6.106;2023-02-28T01:17:02;103619.53;;;23.24;42.94
58698;BME280;44475;53.206;-6.106;2023-02-28T01:19:28;103625.81;;;23.26;42.92
58698;BME280;44475;53.206;-6.106;2023-02-28T01:21:55;103614.53;;;23.34;42.83
58698;BME280;44475;53.206;-6.106;2023-02-28T01:24:21;103617.34;;;23.32;42.88
58698;BME280;44475;53.206;-6.106;2023-02-28T01:26:47;103610.63;;;23.18;42.95
58698;BME280;44475;53.206;-6.106;2023-02-28T01:29:14;103616.44;;;23.32;42.72
58698;BME280;44475;53.206;-6.106;2023-02-28T01:31:41;103621.09;;;23.29;43.03
58698;BME280;44475;53.206;-6.106;2023-02-28T01:34:08;103621.84;;;23.33;42.89
58698;BME280;44475;53.206;-6.106;2023-02-28T01:36:34;103613.50;;;23.15;43.24
58698;BME280;44475;53.206;-6.106;2023-02-28T01:39:00;103618.91;;;23.17;43.30
58698;BME280;44475;53.206;-6.106;2023-02-28T01:41:29;103610.63;;;23.18;43.16
58698;BME280;44475;53.206;-6.106;2023-02-28T01:44:02;103619.13;;;23.33;43.13
58698;BME280;44475;53.206;-6.106;2023-02-28T01:46:30;103616.16;;;23.17;43.28
58698;BME280;44475;53.206;-6.106;2023-02-28T01:49:08;103611.41;;;23.22;43.31
58698;BME280;44475;53.206;-6.106;2023-02-28T01:51:42;103618.66;;;23.23;43.24
58698;BME280;44475;53.206;-6.106;2023-02-28T01:54:28;103616.88;;;23.22;43.18
58698;BME280;44475;53.206;-6.106;2023-02-28T01:57:03;103612.63;;;23.15;43.18
58698;BME280;44475;53.206;-6.106;2023-02-28T01:59:52;103616.88;;;23.22;43.11
58698;BME280;44475;53.206;-6.106;2023-02-28T02:02:22;103617.53;;;23.27;43.25
58698;BME280;44475;53.206;-6.106;2023-02-28T02:05:14;103617.75;;;23.23;43.18
58698;BME280;44475;53.206;-6.106;2023-02-28T02:07:43;103618.91;;;23.17;43.14
58698;BME280;44475;53.206;-6.106;2023-02-28T02:10:19;103625.19;;;23.19;43.18
58698;BME280;44475;53.206;-6.106;2023-02-28T02:18:21;103619.13;;;23.12;43.26
58698;BME280;44475;53.206;-6.106;2023-02-28T02:27:02;103616.88;;;23.22;43.08
58698;BME280;44475;53.206;-6.106;2023-02-28T02:32:43;103628.75;;;23.21;43.08
58698;BME280;44475;53.206;-6.106;2023-02-28T02:35:33;103616.81;;;23.24;43.11
58698;BME280;44475;53.206;-6.106;2023-02-28T02:43:35;103612.34;;;23.21;43.15
58698;BME280;44475;53.206;-6.106;2023-02-28T02:46:23;103611.94;;;23.09;43.24
58698;BME280;44475;53.206;-6.106;2023-02-28T02:48:54;103614.47;;;23.14;43.46
58698;BME280;44475;53.206;-6.106;2023-02-28T02:51:23;103611.94;;;23.09;43.48
58698;BME280;44475;53.206;-6.106;2023-02-28T02:56:26;103607.97;;;23.17;43.17
58698;BME280;44475;53.206;-6.106;2023-02-28T02:58:59;103607.22;;;23.13;42.97
58698;BME280;44475;53.206;-6.106;2023-02-28T03:01:29;103608.38;;;23.28;42.91
58698;BME280;44475;53.206;-6.106;2023-02-28T03:04:23;103605.69;;;23.27;42.91
58698;BME280;44475;53.206;-6.106;2023-02-28T03:06:51;103606.75;;;23.24;43.03
58698;BME280;44475;53.206;-6.106;2023-02-28T03:09:22;103600.16;;;23.28;42.96
58698;BME280;44475;53.206;-6.106;2023-02-28T03:11:50;103601.13;;;23.27;42.83
58698;BME280;44475;53.206;-6.106;2023-02-28T03:22:21;103601.13;;;23.27;42.89
58698;BME280;44475;53.206;-6.106;2023-02-28T03:27:42;103617.28;;;23.13;43.24
58698;BME280;44475;53.206;-6.106;2023-02-28T03:35:23;103614.38;;;23.37;42.92
58698;BME280;44475;53.206;-6.106;2023-02-28T03:37:58;103621.97;;;23.30;42.92
58698;BME280;44475;53.206;-6.106;2023-02-28T03:40:30;103609.75;;;23.18;43.06
58698;BME280;44475;53.206;-6.106;2023-02-28T03:43:04;103613.44;;;23.17;43.19
58698;BME280;44475;53.206;-6.106;2023-02-28T03:45:36;103613.19;;;23.23;43.12
58698;BME280;44475;53.206;-6.106;2023-02-28T03:48:15;103614.97;;;23.24;42.97
58698;BME280;44475;53.206;-6.106;2023-02-28T03:50:47;103620.44;;;23.24;42.98
58698;BME280;44475;53.206;-6.106;2023-02-28T03:53:27;103617.75;;;23.23;42.98
58698;BME280;44475;53.206;-6.106;2023-02-28T03:56:20;103619.25;;;23.30;42.72
58698;BME280;44475;53.206;-6.106;2023-02-28T03:58:59;103623.22;;;23.23;42.88
58698;BME280;44475;53.206;-6.106;2023-02-28T04:01:35;103626.16;;;23.18;42.83
58698;BME280;44475;53.206;-6.106;2023-02-28T04:04:02;103623.16;;;23.24;42.86
58698;BME280;44475;53.206;-6.106;2023-02-28T04:06:32;103623.88;;;23.28;42.93
58698;BME280;44475;53.206;-6.106;2023-02-28T04:08:59;103617.75;;;23.23;43.26
58698;BME280;44475;53.206;-6.106;2023-02-28T04:11:38;103620.63;;;23.19;42.86
58698;BME280;44475;53.206;-6.106;2023-02-28T04:14:06;103623.00;;;23.27;42.99
58698;BME280;44475;53.206;-6.106;2023-02-28T04:16:34;103620.50;;;23.23;42.80
58698;BME280;44475;53.206;-6.106;2023-02-28T04:19:02;103626.31;;;23.15;42.88
58698;BME280;44475;53.206;-6.106;2023-02-28T04:21:43;103624.38;;;23.17;43.11
58698;BME280;44475;53.206;-6.106;2023-02-28T04:24:11;103626.03;;;23.21;42.98
58698;BME280;44475;53.206;-6.106;2023-02-28T04:26:42;103621.63;;;23.17;42.83
58698;BME280;44475;53.206;-6.106;2023-02-28T04:29:11;103623.00;;;23.27;42.80
58698;BME280;44475;53.206;-6.106;2023-02-28T04:31:38;103628.06;;;23.16;42.95
58698;BME280;44475;53.206;-6.106;2023-02-28T04:34:05;103627.03;;;23.18;43.00
58698;BME280;44475;53.206;-6.106;2023-02-28T04:36:31;103634.09;;;23.24;42.62
58698;BME280;44475;53.206;-6.106;2023-02-28T04:38:57;103638.63;;;23.25;42.54
58698;BME280;44475;53.206;-6.106;2023-02-28T04:41:24;103650.97;;;23.13;42.92
58698;BME280;44475;53.206;-6.106;2023-02-28T04:43:51;103640.47;;;23.25;42.83
58698;BME280;44475;53.206;-6.106;2023-02-28T04:46:19;103652.84;;;23.34;42.43
58698;BME280;44475;53.206;-6.106;2023-02-28T04:48:45;103656.72;;;23.28;42.60
58698;BME280;44475;53.206;-6.106;2023-02-28T04:51:14;103659.88;;;23.18;42.74
58698;BME280;44475;53.206;-6.106;2023-02-28T04:53:42;103663.50;;;23.19;43.00
58698;BME280;44475;53.206;-6.106;2023-02-28T04:56:11;103653.25;;;23.24;42.74
58698;BME280;44475;53.206;-6.106;2023-02-28T04:58:38;103656.19;;;23.19;42.87
58698;BME280;44475;53.206;-6.106;2023-02-28T05:01:18;103644.94;;;23.26;42.55
58698;BME280;44475;53.206;-6.106;2023-02-28T05:03:44;103656.13;;;23.21;42.76
58698;BME280;44475;53.206;-6.106;2023-02-28T05:06:12;103652.00;;;23.11;42.96
58698;BME280;44475;53.206;-6.106;2023-02-28T05:08:38;103664.44;;;23.18;42.95
58698;BME280;44475;53.206;-6.106;2023-02-28T05:11:12;103658.97;;;23.18;42.68
58698;BME280;44475;53.206;-6.106;2023-02-28T05:13:39;103672.31;;;23.26;42.71
58698;BME280;44475;53.206;-6.106;2023-02-28T05:16:06;103666.78;;;23.27;42.47
58698;BME280;44475;53.206;-6.106;2023-02-28T05:18:32;103667.41;;;23.13;42.98
58698;BME280;44475;53.206;-6.106;2023-02-28T05:20:59;103673.47;;;23.20;42.81
58698;BME280;44475;53.206;-6.106;2023-02-28T05:23:28;103675.88;;;23.28;42.63
58698;BME280;44475;53.206;-6.106;2023-02-28T05:25:55;103686.97;;;23.25;42.36
58698;BME280;44475;53.206;-6.106;2023-02-28T05:28:21;103689.22;;;23.15;42.57
58698;BME280;44475;53.206;-6.106;2023-02-28T05:30:48;103696.13;;;23.24;42.74
58698;BME280;44475;53.206;-6.106;2023-02-28T05:33:14;103698.03;;;23.22;42.27
58698;BME280;44475;53.206;-6.106;2023-02-28T05:35:41;103699.81;;;23.23;42.61
58698;BME280;44475;53.206;-6.106;2023-02-28T05:38:08;103699.94;;;23.19;42.59
58698;BME280;44475;53.206;-6.106;2023-02-28T05:40:35;103700.88;;;23.18;42.54
58698;BME280;44475;53.206;-6.106;2023-02-28T05:43:03;103701.72;;;23.21;42.69
58698;BME280;44475;53.206;-6.106;2023-02-28T05:45:29;103707.31;;;23.17;42.50
58698;BME280;44475;53.206;-6.106;2023-02-28T05:47:56;103706.03;;;23.26;42.28
58698;BME280;44475;53.206;-6.106;2023-02-28T05:50:22;103706.41;;;23.17;42.40
58698;BME280;44475;53.206;-6.106;2023-02-28T05:52:52;103711.22;;;23.12;42.57
58698;BME280;44475;53.206;-6.106;2023-02-28T05:55:18;103705.63;;;23.15;42.78
58698;BME280;44475;53.206;-6.106;2023-02-28T05:57:45;103708.41;;;23.13;42.63
58698;BME280;44475;53.206;-6.106;2023-02-28T06:00:11;103712.94;;;23.14;42.42
58698;BME280;44475;53.206;-6.106;2023-02-28T06:02:39;103706.38;;;23.18;42.57
58698;BME280;44475;53.206;-6.106;2023-02-28T06:05:13;103702.41;;;23.26;42.49
58698;BME280;44475;53.206;-6.106;2023-02-28T06:07:39;103704.63;;;23.16;42.57
58698;BME280;44475;53.206;-6.106;2023-02-28T06:10:06;103703.56;;;23.20;42.15
58698;BME280;44475;53.206;-6.106;2023-02-28T06:12:32;103704.78;;;23.13;42.54
58698;BME280;44475;53.206;-6.106;2023-02-28T06:14:59;103702.94;;;23.13;42.61
58698;BME280;44475;53.206;-6.106;2023-02-28T06:17:25;103701.88;;;22.95;42.83
58698;BME280;44475;53.206;-6.106;2023-02-28T06:19:51;103696.03;;;23.04;42.62
58698;BME280;44475;53.206;-6.106;2023-02-28T06:22:17;103699.63;;;23.05;42.45
58698;BME280;44475;53.206;-6.106;2023-02-28T06:24:44;103701.09;;;23.14;42.65
58698;BME280;44475;53.206;-6.106;2023-02-28T06:27:10;103703.00;;;23.12;42.37
58698;BME280;44475;53.206;-6.106;2023-02-28T06:29:36;103700.22;;;23.13;42.35
58698;BME280;44475;53.206;-6.106;2023-02-28T06:32:06;103703.84;;;23.14;42.46
58698;BME280;44475;53.206;-6.106;2023-02-28T06:34:32;103706.06;;;23.04;42.50
58698;BME280;44475;53.206;-6.106;2023-02-28T06:36:59;103712.03;;;23.14;42.59
58698;BME280;44475;53.206;-6.106;2023-02-28T06:39:30;103704.63;;;23.16;42.39
58698;BME280;44475;53.206;-6.106;2023-02-28T06:41:56;103714.69;;;23.15;42.47
58698;BME280;44475;53.206;-6.106;2023-02-28T06:44:23;103723.94;;;23.13;42.54
58698;BME280;44475;53.206;-6.106;2023-02-28T06:46:50;103717.63;;;23.11;42.62
58698;BME280;44475;53.206;-6.106;2023-02-28T06:49:17;103720.44;;;23.09;42.55
58698;BME280;44475;53.206;-6.106;2023-02-28T06:51:44;103723.22;;;23.07;42.70
58698;BME280;44475;53.206;-6.106;2023-02-28T06:54:11;103725.78;;;23.12;42.37
58698;BME280;44475;53.206;-6.106;2023-02-28T06:56:38;103725.78;;;23.12;42.73
58698;BME280;44475;53.206;-6.106;2023-02-28T06:59:04;103732.25;;;23.09;42.80
58698;BME280;44475;53.206;-6.106;2023-02-28T07:01:31;103738.91;;;23.04;42.78
58698;BME280;44475;53.206;-6.106;2023-02-28T07:04:00;103744.09;;;23.10;42.73
58698;BME280;44475;53.206;-6.106;2023-02-28T07:06:27;103736.84;;;23.09;42.68
58698;BME280;44475;53.206;-6.106;2023-02-28T07:08:54;103738.91;;;23.04;42.72
58698;BME280;44475;53.206;-6.106;2023-02-28T07:11:22;103739.78;;;23.04;42.94
58698;BME280;44475;53.206;-6.106;2023-02-28T07:13:49;103741.69;;;23.02;42.96
58698;BME280;44475;53.206;-6.106;2023-02-28T07:16:16;103740.47;;;23.09;42.78
58698;BME280;44475;53.206;-6.106;2023-02-28T07:18:43;103740.66;;;23.05;42.78
58698;BME280;44475;53.206;-6.106;2023-02-28T07:21:10;103743.25;;;23.08;42.62
58698;BME280;44475;53.206;-6.106;2023-02-28T07:23:38;103735.88;;;23.10;42.60
58698;BME280;44475;53.206;-6.106;2023-02-28T07:26:05;103741.28;;;23.12;42.86
58698;BME280;44475;53.206;-6.106;2023-02-28T07:28:33;103740.28;;;23.14;42.47
58698;BME280;44475;53.206;-6.106;2023-02-28T07:31:06;103740.66;;;23.05;42.67
58698;BME280;44475;53.206;-6.106;2023-02-28T07:33:33;103748.00;;;23.04;42.62
58698;BME280;44475;53.206;-6.106;2023-02-28T07:36:09;103742.88;;;23.17;42.28
58698;BME280;44475;53.206;-6.106;2023-02-28T07:38:39;103753.63;;;23.22;42.07
58698;BME280;44475;53.206;-6.106;2023-02-28T07:41:06;103744.78;;;23.15;42.64
58698;BME280;44475;53.206;-6.106;2023-02-28T07:43:32;103748.28;;;23.19;42.32
58698;BME280;44475;53.206;-6.106;2023-02-28T07:46:10;103751.16;;;22.93;42.81
58698;BME280;44475;53.206;-6.106;2023-02-28T07:48:38;103753.25;;;22.86;43.10
58698;BME280;44475;53.206;-6.106;2023-02-28T07:51:04;103748.00;;;23.04;42.64
58698;BME280;44475;53.206;-6.106;2023-02-28T07:53:31;103753.19;;;23.11;42.63
58698;BME280;44475;53.206;-6.106;2023-02-28T07:55:58;103755.94;;;23.11;42.93
58698;BME280;44475;53.206;-6.106;2023-02-28T07:58:25;103768.44;;;23.16;42.54
58698;BME280;44475;53.206;-6.106;2023-02-28T08:00:52;103768.53;;;23.15;42.26
58698;BME280;44475;53.206;-6.106;2023-02-28T08:03:19;103760.56;;;23.08;42.57
58698;BME280;44475;53.206;-6.106;2023-02-28T08:05:46;103770.16;;;22.96;42.68
58698;BME280;44475;53.206;-6.106;2023-02-28T08:08:14;103771.38;;;23.12;42.54
58698;BME280;44475;53.206;-6.106;2023-02-28T08:10:41;103769.72;;;23.07;42.58
58698;BME280;44475;53.206;-6.106;2023-02-28T08:13:07;103778.81;;;23.08;42.42
58698;BME280;44475;53.206;-6.106;2023-02-28T08:15:34;103775.34;;;23.04;42.43
58698;BME280;44475;53.206;-6.106;2023-02-28T08:18:00;103777.03;;;23.07;42.61
58698;BME280;44475;53.206;-6.106;2023-02-28T08:20:27;103785.19;;;23.08;42.38
58698;BME280;44475;53.206;-6.106;2023-02-28T08:22:53;103789.53;;;23.14;42.23
58698;BME280;44475;53.206;-6.106;2023-02-28T08:25:20;103789.19;;;22.99;42.54
58698;BME280;44475;53.206;-6.106;2023-02-28T08:27:46;103787.69;;;23.15;42.15
58698;BME280;44475;53.206;-6.106;2023-02-28T08:30:14;103794.72;;;22.98;42.68
58698;BME280;44475;53.206;-6.106;2023-02-28T08:32:41;103797.13;;;23.06;42.31
58698;BME280;44475;53.206;-6.106;2023-02-28T08:35:08;103801.00;;;23.00;42.69
58698;BME280;44475;53.206;-6.106;2023-02-28T08:37:35;103796.59;;;22.96;42.46
58698;BME280;44475;53.206;-6.106;2023-02-28T08:40:01;103793.75;;;22.99;42.52
58698;BME280;44475;53.206;-6.106;2023-02-28T08:42:30;103796.13;;;23.08;42.08
58698;BME280;44475;53.206;-6.106;2023-02-28T08:44:56;103797.06;;;23.07;42.31
58698;BME280;44475;53.206;-6.106;2023-02-28T08:47:22;103795.88;;;23.15;42.14
58698;BME280;44475;53.206;-6.106;2023-02-28T08:49:48;103794.53;;;23.03;42.15
58698;BME280;44475;53.206;-6.106;2023-02-28T08:52:15;103803.19;;;23.14;42.16
58698;BME280;44475;53.206;-6.106;2023-02-28T08:54:41;103799.06;;;23.04;42.51
58698;BME280;44475;53.206;-6.106;2023-02-28T08:57:07;103803.91;;;22.95;42.36
58698;BME280;44475;53.206;-6.106;2023-02-28T08:59:34;103805.09;;;23.12;42.42
58698;BME280;44475;53.206;-6.106;2023-02-28T09:02:00;103808.91;;;23.08;42.33
58698;BME280;44475;53.206;-6.106;2023-02-28T09:04:27;103800.91;;;23.03;42.61
58698;BME280;44475;53.206;-6.106;2023-02-28T09:06:56;103809.72;;;23.10;42.25
58698;BME280;44475;53.206;-6.106;2023-02-28T09:09:22;103810.94;;;23.03;42.52
58698;BME280;44475;53.206;-6.106;2023-02-28T09:11:49;103811.63;;;23.08;42.34
58698;BME280;44475;53.206;-6.106;2023-02-28T09:14:15;103805.84;;;22.93;42.60
58698;BME280;44475;53.206;-6.106;2023-02-28T09:16:43;103811.47;;;23.13;42.12
58698;BME280;44475;53.206;-6.106;2023-02-28T09:19:11;103814.38;;;23.08;42.39
58698;BME280;44475;53.206;-6.106;2023-02-28T09:21:38;103806.28;;;23.05;42.58
58698;BME280;44475;53.206;-6.106;2023-02-28T09:24:05;103815.47;;;23.04;42.37
58698;BME280;44475;53.206;-6.106;2023-02-28T09:26:31;103812.34;;;23.13;42.17
58698;BME280;44475;53.206;-6.106;2023-02-28T09:28:58;103815.72;;;23.20;41.79
58698;BME280;44475;53.206;-6.106;2023-02-28T09:31:27;103812.34;;;23.13;42.25
58698;BME280;44475;53.206;-6.106;2023-02-28T09:33:56;103807.88;;;23.11;42.12
58698;BME280;44475;53.206;-6.106;2023-02-28T09:36:24;103818.63;;;23.15;42.03
58698;BME280;44475;53.206;-6.106;2023-02-28T09:38:50;103816.16;;;23.09;42.37
58698;BME280;44475;53.206;-6.106;2023-02-28T09:41:39;103818.72;;;23.14;41.92
58698;BME280;44475;53.206;-6.106;2023-02-28T09:44:22;103816.94;;;23.13;42.24
58698;BME280;44475;53.206;-6.106;2023-02-28T09:46:55;103812.91;;;22.99;42.53
58698;BME280;44475;53.206;-6.106;2023-02-28T09:49:32;103815.38;;;23.05;42.41
58698;BME280;44475;53.206;-6.106;2023-02-28T09:52:03;103815.78;;;23.18;42.00
58698;BME280;44475;53.206;-6.106;2023-02-28T09:54:32;103818.38;;;23.22;42.06
58698;BME280;44475;53.206;-6.106;2023-02-28T09:57:13;103819.91;;;23.06;42.33
58698;BME280;44475;53.206;-6.106;2023-02-28T10:00:20;103816.22;;;23.07;42.14
58698;BME280;44475;53.206;-6.106;2023-02-28T10:03:20;103805.53;;;23.01;42.01
58698;BME280;44475;53.206;-6.106;2023-02-28T10:06:07;103818.63;;;23.15;41.82
58698;BME280;44475;53.206;-6.106;2023-02-28T10:11:24;103811.38;;;22.92;42.57
58698;BME280;44475;53.206;-6.106;2023-02-28T10:14:19;103812.47;;;23.10;42.22
58698;BME280;44475;53.206;-6.106;2023-02-28T10:16:50;103809.03;;;23.27;41.63
58698;BME280;44475;53.206;-6.106;2023-02-28T10:24:35;103808.72;;;23.13;41.76
58698;BME280;44475;53.206;-6.106;2023-02-28T10:27:18;103815.78;;;23.18;41.92
58698;BME280;44475;53.206;-6.106;2023-02-28T10:29:47;103817.81;;;23.13;41.95
58698;BME280;44475;53.206;-6.106;2023-02-28T10:32:23;103824.28;;;23.11;42.00
58698;BME280;44475;53.206;-6.106;2023-02-28T10:35:16;103820.41;;;22.94;42.47
58698;BME280;44475;53.206;-6.106;2023-02-28T10:37:40;103835.81;;;23.19;42.14
58698;BME280;44475;53.206;-6.106;2023-02-28T10:40:27;103827.72;;;23.16;41.91
58698;BME280;44475;53.206;-6.106;2023-02-28T10:43:20;103825.88;;;23.16;41.91
58698;BME280;44475;53.206;-6.106;2023-02-28T10:45:57;103826.78;;;23.17;41.90
58698;BME280;44475;53.206;-6.106;2023-02-28T10:48:30;103826.41;;;23.04;42.39
58698;BME280;44475;53.206;-6.106;2023-02-28T10:50:58;103830.84;;;23.29;41.75
58698;BME280;44475;53.206;-6.106;2023-02-28T10:53:32;103835.31;;;23.32;41.75
58698;BME280;44475;53.206;-6.106;2023-02-28T10:59:26;103823.09;;;23.18;41.70
58698;BME280;44475;53.206;-6.106;2023-02-28T11:01:53;103817.00;;;23.34;41.43
58698;BME280;44475;53.206;-6.106;2023-02-28T11:06:56;103823.59;;;23.28;41.47
58698;BME280;44475;53.206;-6.106;2023-02-28T11:09:32;103825.44;;;23.27;41.84
58698;BME280;44475;53.206;-6.106;2023-02-28T11:12:04;103810.13;;;23.23;41.44
58698;BME280;44475;53.206;-6.106;2023-02-28T11:14:35;103824.38;;;23.32;41.57
58698;BME280;44475;53.206;-6.106;2023-02-28T11:17:29;103815.59;;;23.23;41.85
58698;BME280;44475;53.206;-6.106;2023-02-28T11:20:07;103816.84;;;23.37;41.48
58698;BME280;44475;53.206;-6.106;2023-02-28T11:22:45;103818.69;;;23.36;41.27
58698;BME280;44475;53.206;-6.106;2023-02-28T11:25:33;103809.84;;;23.29;41.30
58698;BME280;44475;53.206;-6.106;2023-02-28T11:28:03;103814.09;;;23.37;41.39
58698;BME280;44475;53.206;-6.106;2023-02-28T11:30:40;103812.47;;;23.10;42.19
58698;BME280;44475;53.206;-6.106;2023-02-28T11:33:23;103804.59;;;23.25;41.81
58698;BME280;44475;53.206;-6.106;2023-02-28T11:35:50;103808.84;;;23.32;41.64
58698;BME280;44475;53.206;-6.106;2023-02-28T11:38:17;103826.16;;;23.33;41.37
58698;BME280;44475;53.206;-6.106;2023-02-28T11:52:42;103822.84;;;23.24;41.83
58698;BME280;44475;53.206;-6.106;2023-02-28T12:06:55;103819.72;;;23.34;41.44
58698;BME280;44475;53.206;-6.106;2023-02-28T12:15:32;103817.50;;;23.21;41.67
58698;BME280;44475;53.206;-6.106;2023-02-28T12:18:38;103811.81;;;23.26;41.59
58698;BME280;44475;53.206;-6.106;2023-02-28T12:26:47;103801.75;;;23.26;41.70
58698;BME280;44475;53.206;-6.106;2023-02-28T12:29:43;103807.13;;;23.29;41.33
58698;BME280;44475;53.206;-6.106;2023-02-28T12:32:42;103808.47;;;23.19;42.00
58698;BME280;44475;53.206;-6.106;2023-02-28T12:37:47;103812.25;;;23.37;41.21
58698;BME280;44475;53.206;-6.106;2023-02-28T12:40:23;103802.53;;;23.30;41.52
58698;BME280;44475;53.206;-6.106;2023-02-28T12:43:00;103799.81;;;23.30;41.38
58698;BME280;44475;53.206;-6.106;2023-02-28T12:48:17;103798.78;;;23.33;41.38
58698;BME280;44475;53.206;-6.106;2023-02-28T12:50:46;103788.06;;;23.49;41.00
58698;BME280;44475;53.206;-6.106;2023-02-28T12:53:36;103791.47;;;23.33;41.48
58698;BME280;44475;53.206;-6.106;2023-02-28T12:56:41;103790.25;;;23.41;41.20
58698;BME280;44475;53.206;-6.106;2023-02-28T12:59:03;103784.16;;;23.34;41.10
58698;BME280;44475;53.206;-6.106;2023-02-28T13:01:38;103784.78;;;23.41;41.33
58698;BME280;44475;53.206;-6.106;2023-02-28T13:04:38;103789.13;;;23.46;41.07
58698;BME280;44475;53.206;-6.106;2023-02-28T13:09:56;103787.63;;;23.37;41.25
58698;BME280;44475;53.206;-6.106;2023-02-28T13:12:24;103776.84;;;23.34;41.04
58698;BME280;44475;53.206;-6.106;2023-02-28T13:14:51;103778.34;;;23.42;41.10
58698;BME280;44475;53.206;-6.106;2023-02-28T13:17:27;103771.44;;;23.33;41.11
58698;BME280;44475;53.206;-6.106;2023-02-28T13:27:52;103764.94;;;23.35;41.13
58698;BME280;44475;53.206;-6.106;2023-02-28T13:49:31;103754.00;;;23.35;41.31
58698;BME280;44475;53.206;-6.106;2023-02-28T14:00:00;103748.25;;;23.42;41.02
58698;BME280;44475;53.206;-6.106;2023-02-28T14:05:17;103748.19;;;23.43;41.02
58698;BME280;44475;53.206;-6.106;2023-02-28T14:07:48;103745.69;;;23.37;41.29
58698;BME280;44475;53.206;-6.106;2023-02-28T14:18:03;103747.47;;;23.38;41.28
58698;BME280;44475;53.206;-6.106;2023-02-28T14:20:32;103745.47;;;23.43;41.15
58698;BME280;44475;53.206;-6.106;2023-02-28T14:31:20;103739.03;;;23.44;41.09
58698;BME280;44475;53.206;-6.106;2023-02-28T14:36:41;103735.34;;;23.45;40.71
58698;BME280;44475;53.206;-6.106;2023-02-28T14:39:20;103730.28;;;23.36;41.09
58698;BME280;44475;53.206;-6.106;2023-02-28T14:41:47;103738.88;;;23.47;40.99
58698;BME280;44475;53.206;-6.106;2023-02-28T14:46:51;103737.66;;;23.34;41.05
58698;BME280;44475;53.206;-6.106;2023-02-28T14:54:42;103713.56;;;23.42;40.69
58698;BME280;44475;53.206;-6.106;2023-02-28T14:57:30;103712.53;;;23.24;41.31
58698;BME280;44475;53.206;-6.106;2023-02-28T15:02:37;103711.19;;;23.34;40.88
58698;BME280;44475;53.206;-6.106;2023-02-28T15:05:26;103708.09;;;23.42;40.71
58698;BME280;44475;53.206;-6.106;2023-02-28T15:08:26;103707.13;;;23.22;41.08
58698;BME280;44475;53.206;-6.106;2023-02-28T15:11:01;103704.00;;;23.32;41.01
58698;BME280;44475;53.206;-6.106;2023-02-28T15:13:39;103709.59;;;23.28;41.21
58698;BME280;44475;53.206;-6.106;2023-02-28T15:16:12;103710.59;;;23.26;41.13
58698;BME280;44475;53.206;-6.106;2023-02-28T15:21:27;103701.84;;;23.17;41.02
58698;BME280;44475;53.206;-6.106;2023-02-28T15:24:07;103705.34;;;23.21;41.28
58698;BME280;44475;53.206;-6.106;2023-02-28T15:26:40;103705.00;;;23.29;40.68
58698;BME280;44475;53.206;-6.106;2023-02-28T15:29:12;103695.41;;;23.18;41.11
58698;BME280;44475;53.206;-6.106;2023-02-28T15:31:41;103703.09;;;23.31;40.70
58698;BME280;44475;53.206;-6.106;2023-02-28T15:34:35;103698.81;;;23.25;40.71
58698;BME280;44475;53.206;-6.106;2023-02-28T15:37:06;103698.91;;;23.22;40.84
58698;BME280;44475;53.206;-6.106;2023-02-28T15:39:42;103693.38;;;23.24;40.70
58698;BME280;44475;53.206;-6.106;2023-02-28T15:42:20;103693.63;;;23.17;41.20
58698;BME280;44475;53.206;-6.106;2023-02-28T15:44:47;103700.75;;;23.22;41.00
58698;BME280;44475;53.206;-6.106;2023-02-28T15:47:25;103700.72;;;23.23;40.95